sensor_id;sensor_type;location;lat;lon;timestamp;P1;durP1;ratioP1;P2;durP2;ratioP2
36105;SDS011;22159;55.736;38.048;2023-03-01T00:01:53;1.15;;;0.20;;
36105;SDS011;22159;55.736;38.048;2023-03-01T00:04:19;0.65;;;0.20;;
36105;SDS011;22159;55.736;38.048;2023-03-01T00:06:45;0.77;;;0.13;;
36105;SDS011;22159;55.736;38.048;2023-03-01T00:09:13;0.57;;;0.10;;
36105;SDS011;22159;55.736;38.048;2023-03-01T00:11:39;0.10;;;0.03;;
36105;SDS011;22159;55.736;38.048;2023-03-01T00:14:05;0.93;;;0.30;;
36105;SDS011;22159;55.736;38.048;2023-03-01T00:16:41;0.40;;;0.30;;
36105;SDS011;22159;55.736;38.048;2023-03-01T00:19:09;0.30;;;0.20;;
36105;SDS011;22159;55.736;38.048;2023-03-01T00:21:36;0.50;;;0.20;;
36105;SDS011;22159;55.736;38.048;2023-03-01T00:24:03;0.30;;;0.20;;
36105;SDS011;22159;55.736;38.048;2023-03-01T00:26:29;0.40;;;0.17;;
36105;SDS011;22159;55.736;38.048;2023-03-01T00:28:56;0.60;;;0.30;;
36105;SDS011;22159;55.736;38.048;2023-03-01T00:31:23;0.30;;;0.20;;
36105;SDS011;22159;55.736;38.048;2023-03-01T00:33:53;0.22;;;0.20;;
36105;SDS011;22159;55.736;38.048;2023-03-01T00:36:23;0.50;;;0.30;;
36105;SDS011;22159;55.736;38.048;2023-03-01T00:38:50;1.23;;;0.22;;
36105;SDS011;22159;55.736;38.048;2023-03-01T00:41:16;0.55;;;0.20;;
36105;SDS011;22159;55.736;38.048;2023-03-01T00:43:43;0.70;;;0.40;;
36105;SDS011;22159;55.736;38.048;2023-03-01T00:46:19;1.05;;;0.25;;
36105;SDS011;22159;55.736;38.048;2023-03-01T00:48:46;0.52;;;0.20;;
36105;SDS011;22159;55.736;38.048;2023-03-01T00:53:38;0.28;;;0.10;;
36105;SDS011;22159;55.736;38.048;2023-03-01T00:56:05;0.88;;;0.20;;
36105;SDS011;22159;55.736;38.048;2023-03-01T00:58:32;0.98;;;0.30;;
36105;SDS011;22159;55.736;38.048;2023-03-01T01:00:58;0.80;;;0.30;;
36105;SDS011;22159;55.736;38.048;2023-03-01T01:03:24;0.82;;;0.28;;
36105;SDS011;22159;55.736;38.048;2023-03-01T01:05:51;0.38;;;0.10;;
36105;SDS011;22159;55.736;38.048;2023-03-01T01:08:18;1.05;;;0.20;;
36105;SDS011;22159;55.736;38.048;2023-03-01T01:10:44;1.02;;;0.20;;
36105;SDS011;22159;55.736;38.048;2023-03-01T01:13:10;1.50;;;0.57;;
36105;SDS011;22159;55.736;38.048;2023-03-01T01:15:36;0.20;;;0.10;;
36105;SDS011;22159;55.736;38.048;2023-03-01T01:18:02;1.20;;;0.30;;
36105;SDS011;22159;55.736;38.048;2023-03-01T01:20:28;0.30;;;0.22;;
36105;SDS011;22159;55.736;38.048;2023-03-01T01:22:54;0.88;;;0.10;;
36105;SDS011;22159;55.736;38.048;2023-03-01T01:25:21;0.50;;;0.20;;
36105;SDS011;22159;55.736;38.048;2023-03-01T01:27:49;0.80;;;0.20;;
36105;SDS011;22159;55.736;38.048;2023-03-01T01:30:15;0.25;;;0.10;;
36105;SDS011;22159;55.736;38.048;2023-03-01T01:32:42;0.75;;;0.28;;
36105;SDS011;22159;55.736;38.048;2023-03-01T01:35:08;1.08;;;0.20;;
36105;SDS011;22159;55.736;38.048;2023-03-01T01:37:34;0.45;;;0.10;;
36105;SDS011;22159;55.736;38.048;2023-03-01T01:40:00;0.77;;;0.15;;
36105;SDS011;22159;55.736;38.048;2023-03-01T01:42:29;0.28;;;0.15;;
36105;SDS011;22159;55.736;38.048;2023-03-01T01:47:40;0.47;;;0.20;;
36105;SDS011;22159;55.736;38.048;2023-03-01T01:50:08;0.60;;;0.20;;
36105;SDS011;22159;55.736;38.048;2023-03-01T01:52:35;0.28;;;0.15;;
36105;SDS011;22159;55.736;38.048;2023-03-01T01:55:05;0.93;;;0.30;;
36105;SDS011;22159;55.736;38.048;2023-03-01T01:57:34;0.50;;;0.22;;
36105;SDS011;22159;55.736;38.048;2023-03-01T02:00:06;0.50;;;0.10;;
36105;SDS011;22159;55.736;38.048;2023-03-01T02:02:33;0.25;;;0.20;;
36105;SDS011;22159;55.736;38.048;2023-03-01T02:05:34;2.60;;;0.20;;
36105;SDS011;22159;55.736;38.048;2023-03-01T02:07:51;0.45;;;0.10;;
36105;SDS011;22159;55.736;38.048;2023-03-01T02:10:18;1.00;;;0.30;;
36105;SDS011;22159;55.736;38.048;2023-03-01T02:12:44;0.63;;;0.30;;
36105;SDS011;22159;55.736;38.048;2023-03-01T02:15:11;0.90;;;0.20;;
36105;SDS011;22159;55.736;38.048;2023-03-01T02:17:37;0.40;;;0.20;;
36105;SDS011;22159;55.736;38.048;2023-03-01T02:22:58;0.88;;;0.20;;
36105;SDS011;22159;55.736;38.048;2023-03-01T02:30:47;0.10;;;0.10;;
36105;SDS011;22159;55.736;38.048;2023-03-01T02:33:34;0.25;;;0.05;;
36105;SDS011;22159;55.736;38.048;2023-03-01T02:36:01;0.80;;;0.20;;
36105;SDS011;22159;55.736;38.048;2023-03-01T02:38:28;0.93;;;0.28;;
36105;SDS011;22159;55.736;38.048;2023-03-01T02:40:55;0.50;;;0.20;;
36105;SDS011;22159;55.736;38.048;2023-03-01T02:43:23;1.85;;;0.10;;
36105;SDS011;22159;55.736;38.048;2023-03-01T02:45:52;1.20;;;0.05;;
36105;SDS011;22159;55.736;38.048;2023-03-01T02:48:18;0.20;;;0.10;;
36105;SDS011;22159;55.736;38.048;2023-03-01T02:53:13;0.52;;;0.10;;
36105;SDS011;22159;55.736;38.048;2023-03-01T02:55:41;0.20;;;0.10;;
36105;SDS011;22159;55.736;38.048;2023-03-01T02:58:07;0.68;;;0.10;;
36105;SDS011;22159;55.736;38.048;2023-03-01T03:00:36;0.93;;;0.22;;
36105;SDS011;22159;55.736;38.048;2023-03-01T03:03:05;1.23;;;0.40;;
36105;SDS011;22159;55.736;38.048;2023-03-01T03:05:31;0.20;;;0.10;;
36105;SDS011;22159;55.736;38.048;2023-03-01T03:07:59;0.57;;;0.20;;
36105;SDS011;22159;55.736;38.048;2023-03-01T03:10:26;1.27;;;0.13;;
36105;SDS011;22159;55.736;38.048;2023-03-01T03:12:54;0.40;;;0.22;;
36105;SDS011;22159;55.736;38.048;2023-03-01T03:15:21;0.40;;;0.13;;
36105;SDS011;22159;55.736;38.048;2023-03-01T03:17:47;1.33;;;0.13;;
36105;SDS011;22159;55.736;38.048;2023-03-01T03:20:15;0.70;;;0.25;;
36105;SDS011;22159;55.736;38.048;2023-03-01T03:22:44;1.13;;;0.40;;
36105;SDS011;22159;55.736;38.048;2023-03-01T03:25:10;1.02;;;0.20;;
36105;SDS011;22159;55.736;38.048;2023-03-01T03:27:37;0.28;;;0.10;;
36105;SDS011;22159;55.736;38.048;2023-03-01T03:30:04;0.55;;;0.20;;
36105;SDS011;22159;55.736;38.048;2023-03-01T03:32:34;0.30;;;0.20;;
36105;SDS011;22159;55.736;38.048;2023-03-01T03:35:00;0.43;;;0.20;;
36105;SDS011;22159;55.736;38.048;2023-03-01T03:37:26;0.65;;;0.30;;
36105;SDS011;22159;55.736;38.048;2023-03-01T03:40:11;0.68;;;0.28;;
36105;SDS011;22159;55.736;38.048;2023-03-01T03:42:40;0.50;;;0.10;;
36105;SDS011;22159;55.736;38.048;2023-03-01T03:45:06;1.30;;;0.22;;
36105;SDS011;22159;55.736;38.048;2023-03-01T03:47:32;1.10;;;0.20;;
36105;SDS011;22159;55.736;38.048;2023-03-01T03:49:58;1.02;;;0.40;;
36105;SDS011;22159;55.736;38.048;2023-03-01T03:52:24;1.95;;;0.40;;
36105;SDS011;22159;55.736;38.048;2023-03-01T03:54:51;0.40;;;0.20;;
36105;SDS011;22159;55.736;38.048;2023-03-01T03:57:16;1.98;;;0.40;;
36105;SDS011;22159;55.736;38.048;2023-03-01T03:59:42;1.05;;;0.28;;
36105;SDS011;22159;55.736;38.048;2023-03-01T04:02:08;1.13;;;0.20;;
36105;SDS011;22159;55.736;38.048;2023-03-01T04:04:34;3.33;;;1.83;;
36105;SDS011;22159;55.736;38.048;2023-03-01T04:07:00;3.25;;;1.83;;
36105;SDS011;22159;55.736;38.048;2023-03-01T04:09:26;3.55;;;1.52;;
36105;SDS011;22159;55.736;38.048;2023-03-01T04:11:55;3.05;;;1.40;;
36105;SDS011;22159;55.736;38.048;2023-03-01T04:14:21;2.72;;;1.20;;
36105;SDS011;22159;55.736;38.048;2023-03-01T04:16:47;2.58;;;1.52;;
36105;SDS011;22159;55.736;38.048;2023-03-01T04:19:13;3.40;;;1.02;;
36105;SDS011;22159;55.736;38.048;2023-03-01T04:21:40;3.22;;;1.30;;
36105;SDS011;22159;55.736;38.048;2023-03-01T04:24:06;4.57;;;0.90;;
36105;SDS011;22159;55.736;38.048;2023-03-01T04:26:33;2.40;;;0.88;;
36105;SDS011;22159;55.736;38.048;2023-03-01T04:28:59;2.22;;;0.90;;
36105;SDS011;22159;55.736;38.048;2023-03-01T04:31:25;1.70;;;0.80;;
36105;SDS011;22159;55.736;38.048;2023-03-01T04:33:52;2.17;;;0.52;;
36105;SDS011;22159;55.736;38.048;2023-03-01T04:36:20;1.92;;;0.70;;
36105;SDS011;22159;55.736;38.048;2023-03-01T04:38:47;1.50;;;0.50;;
36105;SDS011;22159;55.736;38.048;2023-03-01T04:41:14;2.58;;;0.57;;
36105;SDS011;22159;55.736;38.048;2023-03-01T04:43:41;1.65;;;0.68;;
36105;SDS011;22159;55.736;38.048;2023-03-01T04:46:09;2.35;;;0.40;;
36105;SDS011;22159;55.736;38.048;2023-03-01T04:48:37;2.05;;;0.40;;
36105;SDS011;22159;55.736;38.048;2023-03-01T04:51:03;1.40;;;0.38;;
36105;SDS011;22159;55.736;38.048;2023-03-01T04:53:30;1.73;;;0.50;;
36105;SDS011;22159;55.736;38.048;2023-03-01T04:55:57;1.05;;;0.60;;
36105;SDS011;22159;55.736;38.048;2023-03-01T04:58:24;1.85;;;0.50;;
36105;SDS011;22159;55.736;38.048;2023-03-01T05:00:50;2.58;;;0.45;;
36105;SDS011;22159;55.736;38.048;2023-03-01T05:03:16;0.75;;;0.40;;
36105;SDS011;22159;55.736;38.048;2023-03-01T05:05:43;1.02;;;0.40;;
36105;SDS011;22159;55.736;38.048;2023-03-01T05:08:09;1.33;;;0.40;;
36105;SDS011;22159;55.736;38.048;2023-03-01T05:10:53;1.67;;;0.30;;
36105;SDS011;22159;55.736;38.048;2023-03-01T05:13:20;1.48;;;0.40;;
36105;SDS011;22159;55.736;38.048;2023-03-01T05:15:47;2.55;;;0.32;;
36105;SDS011;22159;55.736;38.048;2023-03-01T05:18:14;0.63;;;0.30;;
36105;SDS011;22159;55.736;38.048;2023-03-01T05:20:40;0.75;;;0.30;;
36105;SDS011;22159;55.736;38.048;2023-03-01T05:23:06;0.40;;;0.25;;
36105;SDS011;22159;55.736;38.048;2023-03-01T05:25:32;0.75;;;0.30;;
36105;SDS011;22159;55.736;38.048;2023-03-01T05:27:59;0.68;;;0.30;;
36105;SDS011;22159;55.736;38.048;2023-03-01T05:30:29;0.93;;;0.40;;
36105;SDS011;22159;55.736;38.048;2023-03-01T05:32:55;0.70;;;0.20;;
36105;SDS011;22159;55.736;38.048;2023-03-01T05:35:23;0.50;;;0.20;;
36105;SDS011;22159;55.736;38.048;2023-03-01T05:37:49;1.52;;;0.30;;
36105;SDS011;22159;55.736;38.048;2023-03-01T05:40:17;3.10;;;0.38;;
36105;SDS011;22159;55.736;38.048;2023-03-01T05:42:47;1.90;;;0.20;;
36105;SDS011;22159;55.736;38.048;2023-03-01T05:45:13;2.92;;;0.40;;
36105;SDS011;22159;55.736;38.048;2023-03-01T05:47:40;0.63;;;0.40;;
36105;SDS011;22159;55.736;38.048;2023-03-01T05:50:10;0.43;;;0.20;;
36105;SDS011;22159;55.736;38.048;2023-03-01T05:52:36;0.73;;;0.20;;
36105;SDS011;22159;55.736;38.048;2023-03-01T05:55:02;0.60;;;0.40;;
36105;SDS011;22159;55.736;38.048;2023-03-01T05:57:28;0.90;;;0.30;;
36105;SDS011;22159;55.736;38.048;2023-03-01T05:59:54;1.13;;;0.32;;
36105;SDS011;22159;55.736;38.048;2023-03-01T06:02:20;0.70;;;0.30;;
36105;SDS011;22159;55.736;38.048;2023-03-01T06:04:46;2.75;;;0.43;;
36105;SDS011;22159;55.736;38.048;2023-03-01T06:07:12;0.55;;;0.28;;
36105;SDS011;22159;55.736;38.048;2023-03-01T06:09:38;0.95;;;0.20;;
36105;SDS011;22159;55.736;38.048;2023-03-01T06:12:04;0.43;;;0.20;;
36105;SDS011;22159;55.736;38.048;2023-03-01T06:14:31;0.85;;;0.40;;
36105;SDS011;22159;55.736;38.048;2023-03-01T06:16:57;1.13;;;0.15;;
36105;SDS011;22159;55.736;38.048;2023-03-01T06:19:23;0.50;;;0.20;;
36105;SDS011;22159;55.736;38.048;2023-03-01T06:21:49;1.27;;;0.20;;
36105;SDS011;22159;55.736;38.048;2023-03-01T06:24:15;1.05;;;0.43;;
36105;SDS011;22159;55.736;38.048;2023-03-01T06:26:41;1.60;;;0.30;;
36105;SDS011;22159;55.736;38.048;2023-03-01T06:29:07;0.45;;;0.30;;
36105;SDS011;22159;55.736;38.048;2023-03-01T06:31:33;2.38;;;0.45;;
36105;SDS011;22159;55.736;38.048;2023-03-01T06:33:59;2.85;;;0.28;;
36105;SDS011;22159;55.736;38.048;2023-03-01T06:36:26;0.70;;;0.20;;
36105;SDS011;22159;55.736;38.048;2023-03-01T06:38:51;1.55;;;0.20;;
36105;SDS011;22159;55.736;38.048;2023-03-01T06:41:18;0.60;;;0.20;;
36105;SDS011;22159;55.736;38.048;2023-03-01T06:43:44;0.43;;;0.20;;
36105;SDS011;22159;55.736;38.048;2023-03-01T06:46:10;0.63;;;0.20;;
36105;SDS011;22159;55.736;38.048;2023-03-01T06:48:36;1.73;;;0.20;;
36105;SDS011;22159;55.736;38.048;2023-03-01T06:51:02;0.50;;;0.20;;
36105;SDS011;22159;55.736;38.048;2023-03-01T06:53:29;2.45;;;0.30;;
36105;SDS011;22159;55.736;38.048;2023-03-01T06:55:55;0.45;;;0.10;;
36105;SDS011;22159;55.736;38.048;2023-03-01T06:58:21;1.00;;;0.40;;
36105;SDS011;22159;55.736;38.048;2023-03-01T07:00:47;0.95;;;0.30;;
36105;SDS011;22159;55.736;38.048;2023-03-01T07:03:13;1.17;;;0.38;;
36105;SDS011;22159;55.736;38.048;2023-03-01T07:05:40;1.42;;;0.25;;
36105;SDS011;22159;55.736;38.048;2023-03-01T07:08:06;2.78;;;0.32;;
36105;SDS011;22159;55.736;38.048;2023-03-01T07:10:32;0.43;;;0.20;;
36105;SDS011;22159;55.736;38.048;2023-03-01T07:12:58;1.52;;;0.20;;
36105;SDS011;22159;55.736;38.048;2023-03-01T07:15:24;1.08;;;0.20;;
36105;SDS011;22159;55.736;38.048;2023-03-01T07:17:51;1.05;;;0.30;;
36105;SDS011;22159;55.736;38.048;2023-03-01T07:20:18;0.32;;;0.15;;
36105;SDS011;22159;55.736;38.048;2023-03-01T07:22:47;0.63;;;0.10;;
36105;SDS011;22159;55.736;38.048;2023-03-01T07:25:13;1.30;;;0.32;;
36105;SDS011;22159;55.736;38.048;2023-03-01T07:27:39;2.63;;;0.30;;
36105;SDS011;22159;55.736;38.048;2023-03-01T07:30:06;0.90;;;0.30;;
36105;SDS011;22159;55.736;38.048;2023-03-01T07:32:32;2.10;;;0.32;;
36105;SDS011;22159;55.736;38.048;2023-03-01T07:34:58;2.67;;;0.30;;
36105;SDS011;22159;55.736;38.048;2023-03-01T07:37:24;0.50;;;0.13;;
36105;SDS011;22159;55.736;38.048;2023-03-01T07:39:50;0.93;;;0.20;;
36105;SDS011;22159;55.736;38.048;2023-03-01T07:42:16;0.40;;;0.30;;
36105;SDS011;22159;55.736;38.048;2023-03-01T07:44:42;1.42;;;0.30;;
36105;SDS011;22159;55.736;38.048;2023-03-01T07:47:08;1.40;;;0.20;;
36105;SDS011;22159;55.736;38.048;2023-03-01T07:49:34;1.42;;;0.22;;
36105;SDS011;22159;55.736;38.048;2023-03-01T07:52:00;1.27;;;0.10;;
36105;SDS011;22159;55.736;38.048;2023-03-01T07:54:26;1.50;;;0.20;;
36105;SDS011;22159;55.736;38.048;2023-03-01T07:56:58;0.80;;;0.30;;
36105;SDS011;22159;55.736;38.048;2023-03-01T08:02:10;0.52;;;0.20;;
36105;SDS011;22159;55.736;38.048;2023-03-01T08:04:36;0.82;;;0.30;;
36105;SDS011;22159;55.736;38.048;2023-03-01T08:07:04;1.70;;;0.20;;
36105;SDS011;22159;55.736;38.048;2023-03-01T08:09:31;1.20;;;0.22;;
36105;SDS011;22159;55.736;38.048;2023-03-01T08:11:57;1.92;;;0.30;;
36105;SDS011;22159;55.736;38.048;2023-03-01T08:14:26;0.63;;;0.35;;
36105;SDS011;22159;55.736;38.048;2023-03-01T08:16:52;0.95;;;0.57;;
36105;SDS011;22159;55.736;38.048;2023-03-01T08:19:18;2.10;;;0.30;;
36105;SDS011;22159;55.736;38.048;2023-03-01T08:21:44;1.98;;;0.30;;
36105;SDS011;22159;55.736;38.048;2023-03-01T08:24:10;1.17;;;0.50;;
36105;SDS011;22159;55.736;38.048;2023-03-01T08:26:36;1.52;;;0.35;;
36105;SDS011;22159;55.736;38.048;2023-03-01T08:29:03;2.80;;;0.40;;
36105;SDS011;22159;55.736;38.048;2023-03-01T08:31:30;4.65;;;0.60;;
36105;SDS011;22159;55.736;38.048;2023-03-01T08:33:58;4.32;;;0.50;;
36105;SDS011;22159;55.736;38.048;2023-03-01T08:36:25;1.58;;;0.65;;
36105;SDS011;22159;55.736;38.048;2023-03-01T08:38:52;1.35;;;0.40;;
36105;SDS011;22159;55.736;38.048;2023-03-01T08:41:18;0.75;;;0.30;;
36105;SDS011;22159;55.736;38.048;2023-03-01T08:43:44;3.65;;;0.40;;
36105;SDS011;22159;55.736;38.048;2023-03-01T08:46:10;1.35;;;0.40;;
36105;SDS011;22159;55.736;38.048;2023-03-01T08:48:36;4.03;;;0.60;;
36105;SDS011;22159;55.736;38.048;2023-03-01T08:51:13;1.05;;;0.20;;
36105;SDS011;22159;55.736;38.048;2023-03-01T08:53:40;1.45;;;0.45;;
36105;SDS011;22159;55.736;38.048;2023-03-01T08:56:07;1.83;;;0.50;;
36105;SDS011;22159;55.736;38.048;2023-03-01T08:58:33;1.98;;;0.47;;
36105;SDS011;22159;55.736;38.048;2023-03-01T09:00:59;3.05;;;0.47;;
36105;SDS011;22159;55.736;38.048;2023-03-01T09:03:25;1.27;;;0.40;;
36105;SDS011;22159;55.736;38.048;2023-03-01T09:05:52;1.60;;;0.30;;
36105;SDS011;22159;55.736;38.048;2023-03-01T09:08:18;1.80;;;0.40;;
36105;SDS011;22159;55.736;38.048;2023-03-01T09:10:44;3.95;;;0.50;;
36105;SDS011;22159;55.736;38.048;2023-03-01T09:13:10;2.47;;;0.50;;
36105;SDS011;22159;55.736;38.048;2023-03-01T09:15:37;2.53;;;0.22;;
36105;SDS011;22159;55.736;38.048;2023-03-01T09:18:03;3.35;;;0.45;;
36105;SDS011;22159;55.736;38.048;2023-03-01T09:20:30;5.93;;;0.80;;
36105;SDS011;22159;55.736;38.048;2023-03-01T09:22:56;4.55;;;0.40;;
36105;SDS011;22159;55.736;38.048;2023-03-01T09:25:22;5.35;;;0.60;;
36105;SDS011;22159;55.736;38.048;2023-03-01T09:27:52;3.80;;;0.30;;
36105;SDS011;22159;55.736;38.048;2023-03-01T09:30:18;2.55;;;0.40;;
36105;SDS011;22159;55.736;38.048;2023-03-01T09:32:44;1.48;;;0.50;;
36105;SDS011;22159;55.736;38.048;2023-03-01T09:35:11;4.65;;;0.40;;
36105;SDS011;22159;55.736;38.048;2023-03-01T09:37:37;2.13;;;0.50;;
36105;SDS011;22159;55.736;38.048;2023-03-01T09:40:04;2.15;;;0.43;;
36105;SDS011;22159;55.736;38.048;2023-03-01T09:42:34;3.85;;;0.80;;
36105;SDS011;22159;55.736;38.048;2023-03-01T09:45:04;1.77;;;0.30;;
36105;SDS011;22159;55.736;38.048;2023-03-01T09:47:31;3.10;;;0.60;;
36105;SDS011;22159;55.736;38.048;2023-03-01T09:50:04;2.28;;;0.70;;
36105;SDS011;22159;55.736;38.048;2023-03-01T09:52:45;4.78;;;0.55;;
36105;SDS011;22159;55.736;38.048;2023-03-01T09:55:13;2.50;;;0.50;;
36105;SDS011;22159;55.736;38.048;2023-03-01T10:02:44;2.35;;;0.43;;
36105;SDS011;22159;55.736;38.048;2023-03-01T10:05:47;0.77;;;0.38;;
36105;SDS011;22159;55.736;38.048;2023-03-01T10:08:14;2.20;;;0.40;;
36105;SDS011;22159;55.736;38.048;2023-03-01T10:10:46;0.65;;;0.30;;
36105;SDS011;22159;55.736;38.048;2023-03-01T10:15:55;1.65;;;0.45;;
36105;SDS011;22159;55.736;38.048;2023-03-01T10:18:26;2.60;;;0.43;;
36105;SDS011;22159;55.736;38.048;2023-03-01T10:20:54;0.82;;;0.22;;
36105;SDS011;22159;55.736;38.048;2023-03-01T10:23:22;1.02;;;0.47;;
36105;SDS011;22159;55.736;38.048;2023-03-01T10:28:25;1.38;;;0.25;;
36105;SDS011;22159;55.736;38.048;2023-03-01T10:30:55;2.22;;;0.45;;
36105;SDS011;22159;55.736;38.048;2023-03-01T10:33:24;2.00;;;0.30;;
36105;SDS011;22159;55.736;38.048;2023-03-01T10:35:52;0.80;;;0.28;;
36105;SDS011;22159;55.736;38.048;2023-03-01T10:38:18;1.70;;;0.38;;
36105;SDS011;22159;55.736;38.048;2023-03-01T10:43:16;3.70;;;0.50;;
36105;SDS011;22159;55.736;38.048;2023-03-01T10:45:42;1.85;;;0.50;;
36105;SDS011;22159;55.736;38.048;2023-03-01T10:50:38;0.60;;;0.30;;
36105;SDS011;22159;55.736;38.048;2023-03-01T10:53:10;1.23;;;0.38;;
36105;SDS011;22159;55.736;38.048;2023-03-01T10:55:44;2.63;;;0.60;;
36105;SDS011;22159;55.736;38.048;2023-03-01T11:00:57;0.47;;;0.20;;
36105;SDS011;22159;55.736;38.048;2023-03-01T11:05:54;0.50;;;0.20;;
36105;SDS011;22159;55.736;38.048;2023-03-01T11:10:46;0.55;;;0.30;;
36105;SDS011;22159;55.736;38.048;2023-03-01T11:15:42;1.55;;;0.50;;
36105;SDS011;22159;55.736;38.048;2023-03-01T11:18:21;1.17;;;0.30;;
36105;SDS011;22159;55.736;38.048;2023-03-01T11:20:48;1.90;;;0.30;;
36105;SDS011;22159;55.736;38.048;2023-03-01T11:23:14;0.90;;;0.20;;
36105;SDS011;22159;55.736;38.048;2023-03-01T11:25:42;0.60;;;0.20;;
36105;SDS011;22159;55.736;38.048;2023-03-01T11:28:12;0.95;;;0.32;;
36105;SDS011;22159;55.736;38.048;2023-03-01T11:35:35;1.33;;;0.20;;
36105;SDS011;22159;55.736;38.048;2023-03-01T11:40:37;1.38;;;0.28;;
36105;SDS011;22159;55.736;38.048;2023-03-01T11:43:09;1.48;;;0.30;;
36105;SDS011;22159;55.736;38.048;2023-03-01T11:50:53;1.52;;;0.73;;
36105;SDS011;22159;55.736;38.048;2023-03-01T11:58:39;2.15;;;0.63;;
36105;SDS011;22159;55.736;38.048;2023-03-01T12:01:19;2.17;;;0.40;;
36105;SDS011;22159;55.736;38.048;2023-03-01T12:19:18;2.53;;;0.77;;
36105;SDS011;22159;55.736;38.048;2023-03-01T12:22:04;1.05;;;0.40;;
36105;SDS011;22159;55.736;38.048;2023-03-01T12:30:06;1.98;;;0.70;;
36105;SDS011;22159;55.736;38.048;2023-03-01T12:51:33;3.63;;;0.50;;
36105;SDS011;22159;55.736;38.048;2023-03-01T12:54:01;0.52;;;0.38;;
36105;SDS011;22159;55.736;38.048;2023-03-01T12:56:31;2.22;;;0.35;;
36105;SDS011;22159;55.736;38.048;2023-03-01T13:11:52;1.88;;;0.50;;
36105;SDS011;22159;55.736;38.048;2023-03-01T13:16:51;1.95;;;0.80;;
36105;SDS011;22159;55.736;38.048;2023-03-01T13:19:21;1.17;;;0.60;;
36105;SDS011;22159;55.736;38.048;2023-03-01T13:21:48;1.00;;;0.50;;
36105;SDS011;22159;55.736;38.048;2023-03-01T13:24:28;1.17;;;0.55;;
36105;SDS011;22159;55.736;38.048;2023-03-01T13:32:24;2.47;;;0.50;;
36105;SDS011;22159;55.736;38.048;2023-03-01T13:34:57;0.85;;;0.60;;
36105;SDS011;22159;55.736;38.048;2023-03-01T13:37:24;0.55;;;0.45;;
36105;SDS011;22159;55.736;38.048;2023-03-01T13:39:51;1.13;;;0.50;;
36105;SDS011;22159;55.736;38.048;2023-03-01T13:42:50;2.30;;;0.50;;
36105;SDS011;22159;55.736;38.048;2023-03-01T13:47:41;1.13;;;0.43;;
36105;SDS011;22159;55.736;38.048;2023-03-01T13:50:15;1.50;;;0.40;;
36105;SDS011;22159;55.736;38.048;2023-03-01T13:52:43;1.50;;;0.47;;
36105;SDS011;22159;55.736;38.048;2023-03-01T13:57:56;1.40;;;0.60;;
36105;SDS011;22159;55.736;38.048;2023-03-01T14:00:33;1.80;;;0.45;;
36105;SDS011;22159;55.736;38.048;2023-03-01T14:03:00;2.28;;;0.65;;
36105;SDS011;22159;55.736;38.048;2023-03-01T14:05:27;2.05;;;0.70;;
36105;SDS011;22159;55.736;38.048;2023-03-01T14:07:53;1.60;;;0.60;;
36105;SDS011;22159;55.736;38.048;2023-03-01T14:10:20;3.33;;;0.57;;
36105;SDS011;22159;55.736;38.048;2023-03-01T14:15:19;1.88;;;0.63;;
36105;SDS011;22159;55.736;38.048;2023-03-01T14:20:24;0.77;;;0.40;;
36105;SDS011;22159;55.736;38.048;2023-03-01T14:22:55;0.70;;;0.43;;
36105;SDS011;22159;55.736;38.048;2023-03-01T14:25:29;2.85;;;0.63;;
36105;SDS011;22159;55.736;38.048;2023-03-01T14:27:57;4.78;;;0.57;;
36105;SDS011;22159;55.736;38.048;2023-03-01T14:30:30;1.15;;;0.22;;
36105;SDS011;22159;55.736;38.048;2023-03-01T14:33:01;3.45;;;0.45;;
36105;SDS011;22159;55.736;38.048;2023-03-01T14:35:31;1.98;;;0.55;;
36105;SDS011;22159;55.736;38.048;2023-03-01T14:40:26;2.47;;;0.50;;
36105;SDS011;22159;55.736;38.048;2023-03-01T14:42:53;2.47;;;0.40;;
36105;SDS011;22159;55.736;38.048;2023-03-01T14:45:20;2.03;;;0.40;;
36105;SDS011;22159;55.736;38.048;2023-03-01T14:47:46;1.77;;;0.38;;
36105;SDS011;22159;55.736;38.048;2023-03-01T14:50:26;0.57;;;0.40;;
36105;SDS011;22159;55.736;38.048;2023-03-01T14:52:54;3.90;;;0.50;;
36105;SDS011;22159;55.736;38.048;2023-03-01T14:55:21;1.85;;;0.40;;
36105;SDS011;22159;55.736;38.048;2023-03-01T14:57:49;1.65;;;0.38;;
36105;SDS011;22159;55.736;38.048;2023-03-01T15:00:17;3.40;;;0.40;;
36105;SDS011;22159;55.736;38.048;2023-03-01T15:02:43;1.98;;;0.30;;
36105;SDS011;22159;55.736;38.048;2023-03-01T15:05:13;1.20;;;0.40;;
36105;SDS011;22159;55.736;38.048;2023-03-01T15:07:40;2.38;;;0.40;;
36105;SDS011;22159;55.736;38.048;2023-03-01T15:10:14;1.23;;;0.35;;
36105;SDS011;22159;55.736;38.048;2023-03-01T15:12:41;1.85;;;0.50;;
36105;SDS011;22159;55.736;38.048;2023-03-01T15:17:48;3.03;;;0.40;;
36105;SDS011;22159;55.736;38.048;2023-03-01T15:20:17;1.00;;;0.38;;
36105;SDS011;22159;55.736;38.048;2023-03-01T15:22:46;0.80;;;0.30;;
36105;SDS011;22159;55.736;38.048;2023-03-01T15:25:16;2.30;;;0.60;;
36105;SDS011;22159;55.736;38.048;2023-03-01T15:27:45;1.90;;;0.68;;
36105;SDS011;22159;55.736;38.048;2023-03-01T15:30:31;1.42;;;0.47;;
36105;SDS011;22159;55.736;38.048;2023-03-01T15:35:44;1.63;;;0.43;;
36105;SDS011;22159;55.736;38.048;2023-03-01T15:40:58;1.73;;;0.55;;
36105;SDS011;22159;55.736;38.048;2023-03-01T15:43:37;1.40;;;0.40;;
36105;SDS011;22159;55.736;38.048;2023-03-01T15:46:04;0.60;;;0.40;;
36105;SDS011;22159;55.736;38.048;2023-03-01T15:48:30;0.98;;;0.40;;
36105;SDS011;22159;55.736;38.048;2023-03-01T15:50:57;0.80;;;0.43;;
36105;SDS011;22159;55.736;38.048;2023-03-01T15:53:24;2.58;;;0.50;;
36105;SDS011;22159;55.736;38.048;2023-03-01T15:55:50;1.05;;;0.40;;
36105;SDS011;22159;55.736;38.048;2023-03-01T15:58:20;1.02;;;0.30;;
36105;SDS011;22159;55.736;38.048;2023-03-01T16:00:46;0.85;;;0.30;;
36105;SDS011;22159;55.736;38.048;2023-03-01T16:03:14;1.20;;;0.50;;
36105;SDS011;22159;55.736;38.048;2023-03-01T16:05:41;1.60;;;0.30;;
36105;SDS011;22159;55.736;38.048;2023-03-01T16:08:08;1.90;;;0.40;;
36105;SDS011;22159;55.736;38.048;2023-03-01T16:10:34;1.92;;;0.40;;
36105;SDS011;22159;55.736;38.048;2023-03-01T16:13:00;1.42;;;0.25;;
36105;SDS011;22159;55.736;38.048;2023-03-01T16:15:30;1.65;;;0.43;;
36105;SDS011;22159;55.736;38.048;2023-03-01T16:17:57;1.38;;;0.30;;
36105;SDS011;22159;55.736;38.048;2023-03-01T16:20:24;1.52;;;0.30;;
36105;SDS011;22159;55.736;38.048;2023-03-01T16:22:50;0.60;;;0.20;;
36105;SDS011;22159;55.736;38.048;2023-03-01T16:25:17;1.00;;;0.38;;
36105;SDS011;22159;55.736;38.048;2023-03-01T16:27:48;1.67;;;0.47;;
36105;SDS011;22159;55.736;38.048;2023-03-01T16:30:15;1.88;;;0.30;;
36105;SDS011;22159;55.736;38.048;2023-03-01T16:32:42;1.05;;;0.40;;
36105;SDS011;22159;55.736;38.048;2023-03-01T16:35:09;2.30;;;0.60;;
36105;SDS011;22159;55.736;38.048;2023-03-01T16:37:36;2.38;;;0.40;;
36105;SDS011;22159;55.736;38.048;2023-03-01T16:40:03;1.77;;;0.40;;
36105;SDS011;22159;55.736;38.048;2023-03-01T16:42:35;1.48;;;0.47;;
36105;SDS011;22159;55.736;38.048;2023-03-01T16:45:02;1.05;;;0.25;;
36105;SDS011;22159;55.736;38.048;2023-03-01T16:47:28;1.23;;;0.30;;
36105;SDS011;22159;55.736;38.048;2023-03-01T16:49:55;1.45;;;0.35;;
36105;SDS011;22159;55.736;38.048;2023-03-01T16:52:21;1.98;;;0.52;;
36105;SDS011;22159;55.736;38.048;2023-03-01T16:54:48;1.38;;;0.45;;
36105;SDS011;22159;55.736;38.048;2023-03-01T16:57:14;1.63;;;0.28;;
36105;SDS011;22159;55.736;38.048;2023-03-01T16:59:41;2.13;;;0.40;;
36105;SDS011;22159;55.736;38.048;2023-03-01T17:02:10;1.05;;;0.30;;